createdAt,value
2017-01-29T00:00:05.044Z,20.42
2017-01-29T00:00:30.617Z,20.34
2017-01-29T00:00:56.222Z,20.33
2017-01-29T00:01:21.809Z,20.42
2017-01-29T05:00:37.921Z,20.3
2017-01-29T05:01:03.512Z,20.34
2017-01-29T05:01:29.232Z,20.33
2017-01-29T05:01:54.911Z,20.33
2017-01-29T05:02:20.514Z,20.33
2017-01-29T05:02:46.076Z,20.34
2017-01-29T05:03:33.926Z,20.33
2017-01-29T05:03:59.491Z,20.33
2017-01-29T05:04:25.067Z,20.27
2017-01-29T05:04:50.673Z,20.35
2017-01-29T05:05:16.277Z,20.34
2017-01-29T05:05:41.914Z,20.33
2017-01-29T05:06:07.514Z,20.27
2017-01-29T05:06:33.104Z,20.35
2017-01-29T05:06:58.752Z,20.27
2017-01-29T05:07:24.334Z,20.34
2017-01-29T05:07:49.916Z,20.38
2017-01-29T05:08:15.648Z,20.38
2017-01-29T05:08:41.294Z,20.27
2017-01-29T05:09:07.092Z,20.28
2017-01-29T05:09:32.741Z,20.3
2017-01-29T05:09:58.301Z,20.38
2017-01-29T05:10:23.962Z,20.35
2017-01-29T05:10:49.527Z,20.28
2017-01-29T05:11:15.089Z,20.39
2017-01-29T05:11:40.799Z,20.35
2017-01-29T05:12:06.371Z,20.34
2017-01-29T05:12:31.944Z,20.31
2017-01-29T05:12:57.619Z,20.31
2017-01-29T05:13:23.234Z,20.34
2017-01-29T05:13:48.926Z,20.35
2017-01-29T05:14:14.653Z,20.3
2017-01-29T05:14:40.225Z,20.33
2017-01-29T05:15:05.802Z,20.43
2017-01-29T05:15:31.385Z,20.27
2017-01-29T05:15:57.034Z,20.39
2017-01-29T05:16:22.714Z,20.41
2017-01-29T05:16:48.291Z,20.31
2017-01-29T05:17:14.149Z,20.33
2017-01-29T05:17:39.865Z,20.28
2017-01-29T05:18:05.455Z,20.42
2017-01-29T05:18:31.042Z,20.39
2017-01-29T05:18:56.820Z,20.34
2017-01-29T05:19:22.368Z,20.43
2017-01-29T05:19:47.962Z,20.34
2017-01-29T05:20:13.519Z,20.42
2017-01-29T05:20:39.153Z,20.46
2017-01-29T05:21:04.793Z,20.38
2017-01-29T05:21:30.361Z,20.39
2017-01-29T05:21:55.984Z,20.42
2017-01-29T05:22:21.540Z,20.38
2017-01-29T05:22:47.124Z,20.35
2017-01-29T05:23:12.683Z,20.39
2017-01-29T05:23:38.320Z,20.39
2017-01-29T05:24:04.842Z,20.41
2017-01-29T05:24:30.445Z,20.39
2017-01-29T05:24:56.044Z,20.38
2017-01-29T05:25:21.611Z,20.39
2017-01-29T05:25:47.186Z,20.41
2017-01-29T05:26:12.730Z,20.42
2017-01-29T05:26:38.333Z,20.43
2017-01-29T05:27:03.889Z,20.42
2017-01-29T05:27:29.483Z,20.47
2017-01-29T05:27:55.131Z,20.34
2017-01-29T05:28:20.700Z,20.35
2017-01-29T05:28:46.279Z,20.41
2017-01-29T05:29:11.933Z,20.46
2017-01-29T05:29:37.483Z,20.41
2017-01-29T05:30:03.182Z,20.46
2017-01-29T05:30:28.729Z,20.38
2017-01-29T05:30:54.295Z,20.41
2017-01-29T05:31:19.969Z,20.41
2017-01-29T05:31:45.586Z,20.41
2017-01-29T05:32:11.263Z,20.46
2017-01-29T05:32:36.985Z,20.39
2017-01-29T05:33:02.555Z,20.47
2017-01-29T05:33:28.246Z,20.41
2017-01-29T05:33:53.825Z,20.42
2017-01-29T05:34:19.484Z,20.39
2017-01-29T05:34:45.137Z,20.41
2017-01-29T05:35:10.724Z,20.35
2017-01-29T05:35:36.372Z,20.42
2017-01-29T05:36:01.985Z,20.42
2017-01-29T05:36:27.565Z,20.41
2017-01-29T05:36:53.197Z,20.42
2017-01-29T05:37:18.860Z,20.42
2017-01-29T05:37:44.683Z,20.41
2017-01-29T05:38:10.422Z,20.46
2017-01-29T05:38:36.193Z,20.34
2017-01-29T05:39:01.771Z,20.42
2017-01-29T05:39:27.381Z,20.34
2017-01-29T05:39:53.038Z,20.42
2017-01-29T05:40:18.584Z,20.39
2017-01-29T05:40:44.221Z,20.42
2017-01-29T05:41:09.774Z,20.41
2017-01-29T05:41:35.408Z,20.35
2017-01-29T05:42:01.087Z,20.35
2017-01-29T05:42:26.704Z,20.41
2017-01-29T05:42:52.376Z,20.41
2017-01-29T05:43:17.980Z,20.41
2017-01-29T05:43:43.603Z,20.41
2017-01-29T05:44:09.271Z,20.39
2017-01-29T05:44:34.828Z,20.46
2017-01-29T05:45:00.494Z,20.41
2017-01-29T05:45:26.159Z,20.41
2017-01-29T05:45:51.658Z,20.38
2017-01-29T05:46:17.341Z,20.41
2017-01-29T05:46:42.922Z,20.42
2017-01-29T05:47:08.587Z,20.39
2017-01-29T05:47:34.222Z,20.43
2017-01-29T05:47:59.827Z,20.41
2017-01-29T05:48:25.451Z,20.41
2017-01-29T05:48:51.043Z,20.38
2017-01-29T05:49:16.693Z,20.43
2017-01-29T05:49:42.364Z,20.41
2017-01-29T05:50:09.018Z,20.41
2017-01-29T05:50:34.698Z,20.43
2017-01-29T05:51:00.264Z,20.39
2017-01-29T05:51:25.845Z,20.39
2017-01-29T05:51:51.510Z,20.46
2017-01-29T05:52:17.092Z,20.41
2017-01-29T05:52:43.248Z,20.43
2017-01-29T05:53:08.835Z,20.46
2017-01-29T05:53:34.509Z,20.43
2017-01-29T05:54:00.057Z,20.42
2017-01-29T05:54:26.213Z,20.38
2017-01-29T05:54:51.277Z,20.41
2017-01-29T05:55:16.755Z,20.39
2017-01-29T05:55:42.336Z,20.39
2017-01-29T05:56:07.973Z,20.39
2017-01-29T05:56:33.846Z,20.43
2017-01-29T05:56:59.470Z,20.39
2017-01-29T05:57:25.032Z,20.41
2017-01-29T05:57:50.676Z,20.43
2017-01-29T05:58:16.264Z,20.41
2017-01-29T05:58:41.840Z,20.39
2017-01-29T05:59:07.412Z,20.41
2017-01-29T05:59:32.949Z,20.42
2017-01-29T05:59:58.620Z,20.41
2017-01-29T06:00:24.172Z,20.42
2017-01-29T06:00:49.829Z,20.41
2017-01-29T06:01:15.456Z,20.34
2017-01-29T06:01:41.034Z,20.46
2017-01-29T06:02:06.631Z,20.41
2017-01-29T06:02:32.254Z,20.43
2017-01-29T06:02:58.025Z,20.42
2017-01-29T06:03:23.682Z,20.41
2017-01-29T06:03:49.263Z,20.39
2017-01-29T06:04:14.906Z,20.41
2017-01-29T06:04:40.534Z,20.43
2017-01-29T06:05:06.079Z,20.43
2017-01-29T06:05:31.695Z,20.43
2017-01-29T06:05:57.263Z,20.42
2017-01-29T06:06:22.959Z,20.38
2017-01-29T06:06:48.630Z,20.41
2017-01-29T06:07:14.185Z,20.43
2017-01-29T06:07:41.378Z,20.43
2017-01-29T06:08:07.003Z,20.43
2017-01-29T06:08:32.644Z,20.42
2017-01-29T06:08:58.210Z,20.43
2017-01-29T06:09:23.904Z,20.39
2017-01-29T06:09:49.558Z,20.39
2017-01-29T06:10:15.154Z,20.42
2017-01-29T06:10:40.796Z,20.46
2017-01-29T06:11:06.373Z,20.35
2017-01-29T06:11:32.064Z,20.34
2017-01-29T06:11:57.613Z,20.42
2017-01-29T06:12:23.174Z,20.38
2017-01-29T06:12:48.832Z,20.43
2017-01-29T06:13:14.483Z,20.42
2017-01-29T06:13:40.125Z,20.39
2017-01-29T06:14:05.705Z,20.41
2017-01-29T06:14:31.274Z,20.39
2017-01-29T06:14:57.016Z,20.42
2017-01-29T06:15:22.618Z,20.43
2017-01-29T06:15:48.197Z,20.41
2017-01-29T06:16:13.911Z,20.42
2017-01-29T06:16:39.503Z,20.39
2017-01-29T06:17:05.165Z,20.43
2017-01-29T06:17:30.789Z,20.42
2017-01-29T06:17:56.361Z,20.46
2017-01-29T06:18:22.019Z,20.35
2017-01-29T06:18:47.655Z,20.42
2017-01-29T06:19:13.155Z,20.39
2017-01-29T06:19:38.806Z,20.46
2017-01-29T06:20:04.375Z,20.39
2017-01-29T06:20:30.008Z,20.39
2017-01-29T06:20:55.561Z,20.42
2017-01-29T06:21:21.256Z,20.46
2017-01-29T06:21:46.883Z,20.42
2017-01-29T06:22:12.565Z,20.38
2017-01-29T06:22:38.221Z,20.46
2017-01-29T06:23:03.871Z,20.39
2017-01-29T06:23:29.454Z,20.39
2017-01-29T06:23:55.586Z,20.41
2017-01-29T06:24:21.278Z,20.39
2017-01-29T06:24:46.923Z,20.38
2017-01-29T06:25:12.481Z,20.42
2017-01-29T06:25:38.143Z,20.43
2017-01-29T06:26:03.768Z,20.39
2017-01-29T06:26:29.339Z,20.41
2017-01-29T06:26:54.927Z,20.39
2017-01-29T06:27:20.533Z,20.41
2017-01-29T06:27:46.155Z,20.5
2017-01-29T06:28:11.841Z,20.41
2017-01-29T06:28:37.398Z,20.39
2017-01-29T06:29:03.053Z,20.46
2017-01-29T06:29:28.633Z,20.38
2017-01-29T06:29:54.282Z,20.42
2017-01-29T06:30:19.993Z,20.41
2017-01-29T06:30:46.187Z,20.34
2017-01-29T06:31:11.867Z,20.46
2017-01-29T06:31:37.427Z,20.41
2017-01-29T06:32:03.123Z,20.56
2017-01-29T06:32:28.718Z,20.42
2017-01-29T06:32:54.399Z,20.51
2017-01-29T06:33:20.054Z,20.38
2017-01-29T06:33:45.600Z,20.41
2017-01-29T06:34:11.237Z,20.38
2017-01-29T06:34:36.790Z,20.46
2017-01-29T06:35:02.441Z,20.47
2017-01-29T06:35:28.067Z,20.39
2017-01-29T06:35:53.624Z,20.34
2017-01-29T06:36:20.133Z,20.38
2017-01-29T06:36:45.700Z,20.39
2017-01-29T06:37:11.350Z,20.42
2017-01-29T06:37:36.977Z,20.38
2017-01-29T06:38:02.525Z,20.38
2017-01-29T06:38:28.199Z,20.39
2017-01-29T06:38:53.756Z,20.41
2017-01-29T06:39:19.319Z,20.38
2017-01-29T06:39:45.000Z,20.43
2017-01-29T06:40:10.680Z,20.42
2017-01-29T06:40:36.320Z,20.41
2017-01-29T06:41:01.971Z,20.41
2017-01-29T06:41:27.450Z,20.35
2017-01-29T06:41:53.031Z,20.42
2017-01-29T06:42:18.621Z,20.42
2017-01-29T06:42:44.247Z,20.51
2017-01-29T06:43:10.060Z,20.35
2017-01-29T06:43:35.743Z,20.43
2017-01-29T06:44:01.378Z,20.39
2017-01-29T06:44:26.916Z,20.42
2017-01-29T06:44:52.519Z,20.5
2017-01-29T06:45:18.337Z,20.39
2017-01-29T06:45:43.972Z,20.41
2017-01-29T06:46:09.542Z,20.38
2017-01-29T06:46:35.147Z,20.43
2017-01-29T06:47:00.697Z,20.41
2017-01-29T06:47:26.341Z,20.5
2017-01-29T06:47:51.887Z,20.39
2017-01-29T06:48:17.446Z,20.43
2017-01-29T06:48:43.084Z,20.38
2017-01-29T06:49:08.713Z,20.49
2017-01-29T06:49:34.384Z,20.39
2017-01-29T06:50:00.075Z,20.42
2017-01-29T06:50:25.669Z,20.5
2017-01-29T06:50:51.330Z,20.42
2017-01-29T06:51:16.912Z,20.39
2017-01-29T06:51:42.505Z,20.39
2017-01-29T06:52:08.167Z,20.41
2017-01-29T06:52:33.749Z,20.42
2017-01-29T06:52:59.470Z,20.43
2017-01-29T06:53:25.159Z,20.34
2017-01-29T06:53:50.729Z,20.42
2017-01-29T06:54:16.343Z,20.39
2017-01-29T06:54:41.963Z,20.38
2017-01-29T06:55:07.545Z,20.46
2017-01-29T06:55:33.221Z,20.5
2017-01-29T06:55:58.711Z,20.35
2017-01-29T06:56:24.569Z,20.39
2017-01-29T06:56:50.230Z,20.41
2017-01-29T06:57:15.726Z,20.42
2017-01-29T06:57:41.398Z,20.39
2017-01-29T06:58:06.955Z,20.39
2017-01-29T06:58:32.596Z,20.35
2017-01-29T06:58:58.151Z,20.46
2017-01-29T06:59:23.833Z,20.42
2017-01-29T06:59:49.604Z,20.41
2017-01-29T07:00:15.187Z,20.43
2017-01-29T07:01:17.781Z,20.43
2017-01-29T07:01:43.328Z,20.38
2017-01-29T07:02:08.891Z,20.38
2017-01-29T07:02:34.580Z,20.39
2017-01-29T07:03:00.148Z,20.38
2017-01-29T07:03:25.725Z,20.39
2017-01-29T07:03:51.257Z,20.41
2017-01-29T07:04:17.567Z,20.34
2017-01-29T07:04:43.121Z,20.39
2017-01-29T07:05:08.814Z,20.51
2017-01-29T07:05:34.849Z,20.38
2017-01-29T07:06:00.404Z,20.43
2017-01-29T07:06:26.588Z,20.38
2017-01-29T07:06:52.152Z,20.41
2017-01-29T07:07:18.404Z,20.41
2017-01-29T07:07:44.011Z,20.43
2017-01-29T07:08:09.568Z,20.41
2017-01-29T07:08:35.844Z,20.42
2017-01-29T07:09:01.418Z,20.39
2017-01-29T07:09:27.543Z,20.43
2017-01-29T07:09:53.144Z,20.42
2017-01-29T07:10:18.746Z,20.38
2017-01-29T07:10:44.916Z,20.41
2017-01-29T07:11:10.472Z,20.47
2017-01-29T07:11:36.744Z,20.38
2017-01-29T07:12:02.315Z,20.41
2017-01-29T07:12:28.475Z,20.42
2017-01-29T07:12:54.046Z,20.41
2017-01-29T07:13:19.700Z,20.51
2017-01-29T07:13:45.833Z,20.42
2017-01-29T07:14:11.418Z,20.41
2017-01-29T07:14:37.702Z,20.42
2017-01-29T07:15:03.285Z,20.54
2017-01-29T07:15:28.846Z,20.42
2017-01-29T07:15:54.985Z,20.42
2017-01-29T07:16:20.574Z,20.42
2017-01-29T07:16:46.801Z,20.47
2017-01-29T07:17:12.370Z,20.41
2017-01-29T07:17:38.555Z,20.5
2017-01-29T07:18:04.132Z,20.58
2017-01-29T07:18:29.681Z,20.53
2017-01-29T07:18:55.890Z,20.41
2017-01-29T07:19:21.461Z,20.39
2017-01-29T07:19:47.703Z,20.46
2017-01-29T07:20:13.325Z,20.56
2017-01-29T07:20:38.877Z,20.49
2017-01-29T07:21:05.143Z,20.56
2017-01-29T07:21:30.693Z,20.43
2017-01-29T07:21:56.846Z,20.5
2017-01-29T07:22:22.435Z,20.46
2017-01-29T07:22:48.646Z,20.51
2017-01-29T07:23:14.229Z,20.41
2017-01-29T07:23:39.932Z,20.47
2017-01-29T07:24:05.963Z,20.46
2017-01-29T07:24:31.535Z,20.42
2017-01-29T07:24:57.852Z,20.53
2017-01-29T07:25:23.421Z,20.5
2017-01-29T07:25:48.999Z,20.51
2017-01-29T07:26:15.264Z,20.56
2017-01-29T07:26:40.855Z,20.51
2017-01-29T07:27:06.949Z,20.49
2017-01-29T07:27:32.503Z,20.5
2017-01-29T07:27:58.705Z,20.39
2017-01-29T07:28:24.275Z,20.47
2017-01-29T07:28:49.865Z,20.56
2017-01-29T07:29:16.057Z,20.39
2017-01-29T07:30:09.319Z,20.58
2017-01-29T07:30:34.887Z,20.51
2017-01-29T07:31:00.452Z,20.53
2017-01-29T07:31:26.127Z,20.58
2017-01-29T07:31:51.692Z,20.56
2017-01-29T07:32:17.860Z,20.46
2017-01-29T07:32:43.436Z,20.51
2017-01-29T07:33:08.988Z,20.54
2017-01-29T07:33:34.574Z,20.54
2017-01-29T07:34:00.118Z,20.54
2017-01-29T07:34:25.687Z,20.54
2017-01-29T07:34:51.260Z,20.53
2017-01-29T07:35:16.833Z,20.53
2017-01-29T07:35:42.403Z,20.53
2017-01-29T07:36:07.996Z,20.51
2017-01-29T07:36:33.559Z,20.53
2017-01-29T07:36:59.164Z,20.51
2017-01-29T07:37:24.774Z,20.51
2017-01-29T07:37:50.397Z,20.47
2017-01-29T07:38:15.950Z,20.47
2017-01-29T07:38:41.510Z,20.51
2017-01-29T07:39:07.170Z,20.54
2017-01-29T07:39:32.744Z,20.51
2017-01-29T07:39:58.298Z,20.59
2017-01-29T07:40:23.968Z,20.47
2017-01-29T07:40:50.285Z,20.49
2017-01-29T07:41:15.863Z,20.49
2017-01-29T07:41:41.433Z,20.58
2017-01-29T07:42:07.013Z,20.49
2017-01-29T07:42:32.584Z,20.49
2017-01-29T07:42:58.167Z,20.53
2017-01-29T07:43:23.735Z,20.51
2017-01-29T07:43:49.292Z,20.53
2017-01-29T07:44:14.924Z,20.5
2017-01-29T07:44:40.519Z,20.53
2017-01-29T07:45:06.094Z,20.51
2017-01-29T07:45:31.653Z,20.53
2017-01-29T07:45:57.221Z,20.53
2017-01-29T07:46:22.792Z,20.58
2017-01-29T07:46:48.356Z,20.5
2017-01-29T07:47:13.929Z,20.56
2017-01-29T07:47:39.481Z,20.51
2017-01-29T07:48:05.121Z,20.5
2017-01-29T07:48:30.710Z,20.49
2017-01-29T07:48:56.256Z,20.53
2017-01-29T07:49:21.892Z,20.49
2017-01-29T07:49:47.483Z,20.5
2017-01-29T07:50:13.061Z,20.5
2017-01-29T07:50:38.631Z,20.49
2017-01-29T07:51:04.287Z,20.61
2017-01-29T07:51:29.814Z,20.54
2017-01-29T07:51:55.390Z,20.51
2017-01-29T07:52:21.022Z,20.53
2017-01-29T07:52:46.622Z,20.53
2017-01-29T07:53:12.183Z,20.53
2017-01-29T07:53:37.878Z,20.54
2017-01-29T07:54:03.444Z,20.56
2017-01-29T07:54:28.996Z,20.53
2017-01-29T07:54:54.702Z,20.54
2017-01-29T07:55:20.301Z,20.56
2017-01-29T07:55:45.868Z,20.56
2017-01-29T07:56:11.419Z,20.56
2017-01-29T07:56:37.141Z,20.59
2017-01-29T07:57:02.711Z,20.47
2017-01-29T07:57:28.295Z,20.62
2017-01-29T07:57:53.924Z,20.59
2017-01-29T07:58:19.516Z,20.61
2017-01-29T07:58:45.089Z,20.51
2017-01-29T07:59:10.673Z,20.56
2017-01-29T07:59:36.322Z,20.58
2017-01-29T08:00:01.890Z,20.64
2017-01-29T08:00:27.490Z,20.54
2017-01-29T08:00:53.146Z,20.53
2017-01-29T08:01:18.744Z,20.56
2017-01-29T08:01:44.321Z,20.58
2017-01-29T08:02:09.905Z,20.49
2017-01-29T08:02:35.545Z,20.51
2017-01-29T08:03:01.103Z,20.58
2017-01-29T08:03:26.742Z,20.62
2017-01-29T08:03:52.382Z,20.58
2017-01-29T08:04:17.944Z,20.62
2017-01-29T08:04:43.596Z,20.61
2017-01-29T08:05:09.195Z,20.59
2017-01-29T08:05:34.992Z,20.61
2017-01-29T08:06:00.615Z,20.61
2017-01-29T08:06:26.184Z,20.62
2017-01-29T08:06:51.791Z,20.62
2017-01-29T08:07:17.353Z,20.62
2017-01-29T08:07:42.904Z,20.62
2017-01-29T08:08:08.540Z,20.59
2017-01-29T08:08:34.125Z,20.61
2017-01-29T08:08:59.683Z,20.62
2017-01-29T08:09:25.261Z,20.64
2017-01-29T08:09:50.813Z,20.64
2017-01-29T08:10:16.438Z,20.65
2017-01-29T08:10:42.003Z,20.59
2017-01-29T08:11:07.599Z,20.61
2017-01-29T08:11:33.174Z,20.58
2017-01-29T08:11:58.773Z,20.62
2017-01-29T08:12:24.340Z,20.64
2017-01-29T08:12:49.905Z,20.62
2017-01-29T08:13:15.748Z,20.64
2017-01-29T08:13:41.325Z,20.66
2017-01-29T08:14:06.893Z,20.64
2017-01-29T08:14:32.534Z,20.64
2017-01-29T08:14:58.101Z,20.65
2017-01-29T08:15:23.659Z,20.66
2017-01-29T08:15:49.283Z,20.64
2017-01-29T08:16:14.885Z,20.65
2017-01-29T08:16:40.458Z,20.59
2017-01-29T08:17:06.025Z,20.65
2017-01-29T08:17:31.585Z,20.66
2017-01-29T08:17:57.251Z,20.69
2017-01-29T08:18:22.830Z,20.66
2017-01-29T08:18:48.398Z,20.71
2017-01-29T08:19:13.968Z,20.64
2017-01-29T08:19:39.537Z,20.66
2017-01-29T08:20:05.096Z,20.64
2017-01-29T08:20:30.701Z,20.71
2017-01-29T08:20:56.253Z,20.69
2017-01-29T08:21:21.811Z,20.66
2017-01-29T08:21:47.372Z,20.71
2017-01-29T08:22:12.942Z,20.66
2017-01-29T08:22:38.579Z,20.71
2017-01-29T08:23:04.153Z,20.76
2017-01-29T08:23:29.710Z,20.76
2017-01-29T08:23:55.281Z,20.69
2017-01-29T08:24:21.050Z,20.69
2017-01-29T08:24:46.618Z,20.69
2017-01-29T08:25:12.187Z,20.68
2017-01-29T08:25:37.766Z,20.69
2017-01-29T08:26:03.392Z,20.66
2017-01-29T08:26:28.980Z,20.68
2017-01-29T08:26:54.541Z,20.69
2017-01-29T08:27:20.242Z,20.69
2017-01-29T08:27:45.823Z,20.64
2017-01-29T08:28:11.386Z,20.69
2017-01-29T08:28:36.976Z,20.71
2017-01-29T08:29:02.563Z,20.72
2017-01-29T08:29:28.134Z,20.71
2017-01-29T08:29:53.750Z,20.68
2017-01-29T08:30:19.372Z,20.71
2017-01-29T08:30:44.948Z,20.68
2017-01-29T08:31:10.558Z,20.69
2017-01-29T08:31:36.195Z,20.71
2017-01-29T08:32:01.782Z,20.68
2017-01-29T08:32:27.344Z,20.69
2017-01-29T08:32:52.924Z,20.68
2017-01-29T08:33:18.494Z,20.66
2017-01-29T08:33:44.051Z,20.66
2017-01-29T08:34:09.673Z,20.71
2017-01-29T08:34:35.465Z,20.71
2017-01-29T08:35:01.049Z,20.68
2017-01-29T08:35:26.636Z,20.68
2017-01-29T08:35:52.278Z,20.66
2017-01-29T08:36:17.841Z,20.64
2017-01-29T08:36:43.401Z,20.69
2017-01-29T08:37:08.990Z,20.69
2017-01-29T08:37:34.610Z,20.77
2017-01-29T08:38:00.209Z,20.66
2017-01-29T08:38:25.877Z,20.71
2017-01-29T08:38:51.477Z,20.66
2017-01-29T08:39:17.046Z,20.71
2017-01-29T08:39:42.653Z,20.71
2017-01-29T08:40:08.245Z,20.69
2017-01-29T08:40:33.807Z,20.69
2017-01-29T08:40:59.410Z,20.69
2017-01-29T08:41:24.975Z,20.76
2017-01-29T08:41:50.749Z,20.69
2017-01-29T08:42:16.321Z,20.77
2017-01-29T08:42:41.894Z,20.76
2017-01-29T08:43:07.492Z,20.71
2017-01-29T08:43:33.043Z,20.72
2017-01-29T08:43:58.622Z,20.69
2017-01-29T08:44:24.271Z,20.68
2017-01-29T08:44:49.841Z,20.74
2017-01-29T08:45:15.419Z,20.8
2017-01-29T08:45:41.060Z,20.72
2017-01-29T08:46:06.680Z,20.71
2017-01-29T08:46:32.247Z,20.69
2017-01-29T08:46:57.823Z,20.79
2017-01-29T08:47:23.452Z,20.68
2017-01-29T08:47:49.022Z,20.79
2017-01-29T08:48:14.653Z,20.71
2017-01-29T08:48:40.217Z,20.76
2017-01-29T08:49:05.803Z,20.77
2017-01-29T08:49:31.499Z,20.74
2017-01-29T08:49:57.092Z,20.71
2017-01-29T08:50:22.653Z,20.81
2017-01-29T08:50:48.208Z,20.77
2017-01-29T08:51:13.786Z,20.72
2017-01-29T08:51:39.381Z,20.79
2017-01-29T08:52:04.945Z,20.72
2017-01-29T08:52:30.541Z,20.77
2017-01-29T08:52:56.109Z,20.71
2017-01-29T08:53:21.812Z,20.74
2017-01-29T08:53:47.375Z,20.79
2017-01-29T08:54:12.971Z,20.74
2017-01-29T08:54:38.542Z,20.77
2017-01-29T08:55:04.170Z,20.71
2017-01-29T08:55:29.746Z,20.74
2017-01-29T08:55:55.308Z,20.79
2017-01-29T08:56:20.878Z,20.8
2017-01-29T08:56:46.641Z,20.8
2017-01-29T08:57:12.234Z,20.79
2017-01-29T08:57:37.803Z,20.74
2017-01-29T08:58:03.384Z,20.72
2017-01-29T08:58:28.960Z,20.79
2017-01-29T08:58:54.582Z,20.79
2017-01-29T08:59:20.136Z,20.77
2017-01-29T08:59:45.913Z,20.77
2017-01-29T09:00:11.509Z,20.74
2017-01-29T09:00:37.100Z,20.79
2017-01-29T09:01:02.733Z,20.79
2017-01-29T09:01:28.320Z,20.81
2017-01-29T09:01:53.887Z,20.72
2017-01-29T09:02:19.468Z,20.71
2017-01-29T09:02:45.101Z,20.76
2017-01-29T09:03:10.771Z,20.74
2017-01-29T09:03:36.524Z,20.74
2017-01-29T09:04:02.135Z,20.77
2017-01-29T09:04:27.673Z,20.74
2017-01-29T09:04:53.349Z,20.77
2017-01-29T09:05:18.946Z,20.77
2017-01-29T09:05:44.522Z,20.79
2017-01-29T09:06:10.107Z,20.74
2017-01-29T09:06:35.713Z,20.72
2017-01-29T09:07:01.555Z,20.81
2017-01-29T09:07:27.165Z,20.72
2017-01-29T09:07:52.811Z,20.69
2017-01-29T09:08:18.449Z,20.76
2017-01-29T09:08:44.022Z,20.74
2017-01-29T09:09:09.624Z,20.76
2017-01-29T09:09:35.251Z,20.71
2017-01-29T09:10:00.803Z,20.86
2017-01-29T09:10:26.451Z,20.71
2017-01-29T09:10:52.168Z,20.8
2017-01-29T09:11:17.768Z,20.72
2017-01-29T09:11:43.373Z,20.74
2017-01-29T09:12:08.939Z,20.83
2017-01-29T09:12:34.529Z,20.81
2017-01-29T09:13:00.144Z,20.77
2017-01-29T09:13:25.687Z,20.77
2017-01-29T09:13:51.282Z,20.76
2017-01-29T09:14:17.029Z,20.74
2017-01-29T09:14:42.618Z,20.72
2017-01-29T09:15:31.044Z,20.71
2017-01-29T09:15:56.590Z,20.71
2017-01-29T09:16:22.203Z,20.71
2017-01-29T09:16:47.760Z,20.8
2017-01-29T09:17:13.321Z,20.77
2017-01-29T09:17:38.989Z,20.79
2017-01-29T09:18:31.952Z,20.77
2017-01-29T09:18:57.511Z,20.77
2017-01-29T09:19:23.058Z,20.8
2017-01-29T09:19:48.630Z,20.83
2017-01-29T09:20:14.297Z,20.81
2017-01-29T09:20:39.920Z,20.79
2017-01-29T09:21:05.490Z,20.79
2017-01-29T09:21:31.090Z,20.8
2017-01-29T09:21:56.707Z,20.8
2017-01-29T09:22:22.276Z,20.79
2017-01-29T09:22:47.866Z,20.76
2017-01-29T09:23:13.512Z,20.79
2017-01-29T09:23:39.066Z,20.77
2017-01-29T09:24:04.634Z,20.77
2017-01-29T09:24:30.207Z,20.79
2017-01-29T09:24:56.649Z,20.79
2017-01-29T09:25:22.419Z,20.8
2017-01-29T09:25:48.021Z,20.83
2017-01-29T09:26:13.708Z,20.8
2017-01-29T09:26:39.292Z,20.83
2017-01-29T09:27:04.868Z,20.84
2017-01-29T09:27:30.445Z,20.79
2017-01-29T09:27:56.025Z,20.81
2017-01-29T09:28:21.579Z,20.8
2017-01-29T09:28:47.140Z,20.76
2017-01-29T09:29:12.802Z,20.89
2017-01-29T09:29:38.369Z,20.83
2017-01-29T09:30:03.910Z,20.84
2017-01-29T09:30:29.483Z,20.83
2017-01-29T09:30:55.031Z,20.89
2017-01-29T09:31:20.599Z,20.87
2017-01-29T09:31:46.259Z,20.8
2017-01-29T09:32:11.929Z,20.86
2017-01-29T09:32:37.482Z,20.89
2017-01-29T09:33:03.031Z,20.91
2017-01-29T09:33:28.714Z,20.89
2017-01-29T09:33:54.299Z,20.9
2017-01-29T09:34:19.855Z,20.81
2017-01-29T09:34:45.431Z,20.86
2017-01-29T09:35:10.969Z,20.93
2017-01-29T09:35:36.555Z,20.87
2017-01-29T09:36:02.151Z,20.87
2017-01-29T09:36:27.758Z,20.86
2017-01-29T09:36:53.334Z,20.89
2017-01-29T09:37:19.007Z,20.9
2017-01-29T09:37:44.631Z,20.89
2017-01-29T09:38:10.201Z,20.86
2017-01-29T09:38:35.754Z,20.87
2017-01-29T09:39:01.339Z,20.9
2017-01-29T09:39:26.951Z,20.86
2017-01-29T09:39:52.554Z,20.86
2017-01-29T09:40:18.162Z,20.9
2017-01-29T09:40:43.729Z,20.89
2017-01-29T09:41:52.406Z,20.89
2017-01-29T09:42:17.962Z,20.89
2017-01-29T09:42:43.646Z,20.89
2017-01-29T09:43:09.239Z,20.9
2017-01-29T09:43:34.801Z,20.91
2017-01-29T09:44:00.367Z,20.93
2017-01-29T09:44:25.986Z,20.87
2017-01-29T09:44:51.577Z,20.84
2017-01-29T09:45:17.144Z,20.9
2017-01-29T09:45:42.703Z,20.8
2017-01-29T09:46:08.420Z,20.87
2017-01-29T09:46:33.991Z,20.87
2017-01-29T09:46:59.545Z,20.87
2017-01-29T09:47:25.231Z,20.89
2017-01-29T09:47:50.796Z,20.93
2017-01-29T09:48:16.374Z,20.83
2017-01-29T09:48:42.033Z,20.89
2017-01-29T09:49:07.619Z,20.81
2017-01-29T09:49:33.174Z,20.93
2017-01-29T09:49:58.763Z,20.9
2017-01-29T09:50:24.411Z,20.91
2017-01-29T09:50:49.971Z,20.93
2017-01-29T09:51:15.545Z,20.98
2017-01-29T09:51:41.112Z,20.87
2017-01-29T09:52:06.650Z,20.91
2017-01-29T09:52:32.232Z,20.93
2017-01-29T09:52:57.785Z,20.9
2017-01-29T09:54:01.275Z,20.9
2017-01-29T09:54:26.831Z,20.87
2017-01-29T09:56:40.619Z,20.89
2017-01-29T09:57:45.830Z,20.99
2017-01-29T09:58:11.433Z,21.05
2017-01-29T09:58:37.009Z,21.05
2017-01-29T09:59:04.702Z,21.04
2017-01-29T09:59:30.276Z,21.01
2017-01-29T09:59:55.973Z,21.04
2017-01-29T10:00:21.544Z,20.99
2017-01-29T10:00:47.123Z,21.04
2017-01-29T10:01:12.706Z,20.9
2017-01-29T10:01:38.285Z,20.96
2017-01-29T10:02:03.839Z,20.96
2017-01-29T10:02:29.393Z,20.99
2017-01-29T10:02:54.963Z,21.01
2017-01-29T10:03:20.549Z,20.99
2017-01-29T10:03:46.185Z,21.06
2017-01-29T10:04:11.672Z,20.99
2017-01-29T10:04:37.225Z,21.01
2017-01-29T10:05:02.827Z,20.99
2017-01-29T10:05:28.423Z,21.06
2017-01-29T10:05:53.999Z,21.01
2017-01-29T10:06:19.548Z,20.98
2017-01-29T10:06:45.146Z,21.01
2017-01-29T10:07:10.719Z,21.02
2017-01-29T10:07:36.286Z,21.02
2017-01-29T10:08:01.839Z,20.98
2017-01-29T10:08:27.437Z,20.96
2017-01-29T10:08:53.168Z,21.02
2017-01-29T10:09:18.733Z,20.96
2017-01-29T10:09:44.294Z,21.02
2017-01-29T10:10:09.869Z,20.99
2017-01-29T10:10:35.434Z,21.04
2017-01-29T10:11:00.999Z,21.04
2017-01-29T10:11:26.567Z,21.04
2017-01-29T10:11:52.131Z,20.96
2017-01-29T10:12:17.800Z,20.98
2017-01-29T10:12:43.406Z,21.05
2017-01-29T10:13:08.982Z,20.91
2017-01-29T10:13:34.547Z,21.01
2017-01-29T10:14:00.129Z,20.99
2017-01-29T10:14:25.693Z,21.01
2017-01-29T10:14:51.292Z,21.02
2017-01-29T10:15:16.887Z,20.96
2017-01-29T10:15:42.493Z,20.99
2017-01-29T10:16:08.066Z,20.93
2017-01-29T10:16:33.658Z,20.87
2017-01-29T10:16:59.346Z,20.96
2017-01-29T10:17:24.943Z,20.93
2017-01-29T10:17:50.496Z,20.89
2017-01-29T10:18:16.076Z,20.98
2017-01-29T10:18:41.707Z,21.01
2017-01-29T10:19:07.289Z,20.9
2017-01-29T10:19:32.913Z,20.89
2017-01-29T10:19:58.559Z,20.86
2017-01-29T10:20:24.119Z,20.91
2017-01-29T10:20:49.686Z,20.93
2017-01-29T10:21:15.339Z,20.9
2017-01-29T10:21:40.911Z,20.9
2017-01-29T10:22:06.491Z,20.95
2017-01-29T10:22:32.157Z,20.9
2017-01-29T10:22:57.717Z,20.89
2017-01-29T10:23:23.282Z,20.98
2017-01-29T10:23:48.924Z,20.98
2017-01-29T10:24:14.538Z,20.89
2017-01-29T10:24:40.119Z,20.91
2017-01-29T10:25:05.677Z,20.93
2017-01-29T10:25:31.257Z,20.95
2017-01-29T10:25:56.897Z,20.86
2017-01-29T10:26:22.469Z,20.91
2017-01-29T10:26:48.045Z,20.9
2017-01-29T10:27:13.714Z,20.93
2017-01-29T10:27:39.275Z,20.89
2017-01-29T10:28:04.936Z,20.91
2017-01-29T10:28:30.561Z,20.89
2017-01-29T10:28:56.134Z,20.86
2017-01-29T10:29:21.726Z,20.9
2017-01-29T10:29:47.400Z,20.93
2017-01-29T10:30:12.969Z,20.9
2017-01-29T10:30:38.799Z,20.93
2017-01-29T10:31:04.383Z,20.9
2017-01-29T10:31:30.058Z,20.95
2017-01-29T10:31:55.632Z,20.9
2017-01-29T10:32:21.208Z,20.86
2017-01-29T10:32:46.826Z,20.89
2017-01-29T10:33:12.449Z,20.99
2017-01-29T10:33:38.027Z,20.89
2017-01-29T10:34:03.668Z,20.93
2017-01-29T10:34:29.243Z,21.01
2017-01-29T10:34:54.805Z,20.89
2017-01-29T10:35:20.392Z,20.99
2017-01-29T10:35:46.596Z,20.98